Cut Bank, MT

10:22 PM MDT on October 25, 2014 (GMT -0600)
Great Falls International | Change Station
CLOSE
Current Station
Airport
Location: Great Falls,
Elevation: 3658 ft
Nearby Weather Stations
Active Advisory: High Wind Warning

Elev 3658 ft 47.47 °N, 111.38 °W | Updated 29 minutes ago

Overcast
Overcast
50 °F
Feels Like 50 °F
N
10
Wind Variable Wind from SSW

Today
High -- | Low -- °F
--% Chance of Precip.
Yesterday
High -- | Low -- °F
Precip. -- in
8:04 AM 6:21 PM
Waxing Crescent, 6% visible
Pressure 29.62 in
Visibility 10.0 miles
Clouds Clear
Dew Point 40 °F
Humidity 68%
Rainfall 0.00 in
Snow Depth Not available.
UV 0 out of 12
Pollen .30 out of 12
Air Quality Not available.
Flu Activity No Activity
METAR KGTF 260353Z 21009KT 10SM CLR 10/04 A2960 RMK AO2 SLP031 T01000044

More Conditions Fewer Conditions

Pressure 29.62 in
Visibility 10.0 miles
Clouds Clear
Dew Point 40 °F
Humidity 68%
Rainfall 0.00 in
Snow Depth Not available.
UV 0 out of 12
Pollen .30 out of 12
Air Quality Not available.
Flu Activity No Activity
METAR KGTF 260353Z 21009KT 10SM CLR 10/04 A2960 RMK AO2 SLP031 T01000044

More Conditions Fewer Conditions

10-Day Weather Forecast

Almanac

Astronomy

Oct. 25, 2014 Rise Set
Actual Time 8:04 AM MDT 6:21 PM MDT
Civil Twilight 7:32 AM MDT 6:53 PM MDT
Nautical Twilight 6:55 AM MDT 7:30 PM MDT
Astronomical Twilight 6:19 AM MDT 8:06 PM MDT
Moon 9:54 AM MDT (10/25) 7:39 PM MDT (10/25)
Length of Visible Light 11h 20m
Length of Day
10h 16m
Tomorrow will be 3m 19s shorter.
Waxing Crescent, 6% of the Moon is Illuminated
Oct 26
Waxing Crescent
Oct 30
First Quarter
Nov 6
Full
Nov 14
Last Quarter
Nov 22
New

Yesterday's Extremes

State Highs State Lows

Community

WunderPhotos

Upload Photos

1,765,110 photos uploaded!

Nearby

Snow Depth

Station Depth Elevation
Badger Pass 1 in 6900 ft
Many Glacier 0 in 4900 ft
Wood Creek 0 in 5960 ft
Kraft Creek 0 in 4750 ft
Copper Bottom 0 in 5200 ft

Earthquake Activity

City Distance Mag. Time & Date
No recent earthquake activity has been reported nearby.
Minimum magnitude displayed is 2.5.

Coastal Water Temperatures

Place Temperature
No Stations Reporting

Nearby Weather Stations